Westbrookville, New York
Current Conditions -  °F | °C
As of 3:15 PM on Thursday 23 Oct 2014 (Local Time) from KMGJ Reporting Station
Overcast Overcast  
Wind Chill: 51°   Ceiling: 3000
Heat Index: 51°   Visibility: 10mi
Dew Point: 48°   Wind: 5mph
Humidity: 89%   Direction: 30°NNE
Pressure: 29.74"   Gusts: NA
Location:  41.5°N, 74.56°W
Report Text: KMGJ 231915Z AUTO 03004KT 10SM FEW006 OVC030 11/09 A2974 RMK AO2 T01060089 TSNO
Loading
Personal Weather Stations






























Interactive Weather Map
Tropical Storm Tracking
New forecast layout! Learn more

10-Day Weather Forecast

Advertisements
Track Severe Weather on mobile